sensor_id;sensor_type;location;lat;lon;timestamp;pressure;altitude;pressure_sealevel;temperature;humidity
48718;BME280;34521;33.042;-96.586;2023-03-31T00:01:49;99140.13;;;22.89;32.51
48718;BME280;34521;33.042;-96.586;2023-03-31T00:04:14;99128.99;;;22.77;32.68
48718;BME280;34521;33.042;-96.586;2023-03-31T00:06:41;99134.92;;;22.62;32.59
48718;BME280;34521;33.042;-96.586;2023-03-31T00:09:06;99141.02;;;22.86;32.23
48718;BME280;34521;33.042;-96.586;2023-03-31T00:11:29;99150.19;;;22.65;32.84
48718;BME280;34521;33.042;-96.586;2023-03-31T00:13:55;99139.84;;;23.01;32.56
48718;BME280;34521;33.042;-96.586;2023-03-31T00:16:19;99131.26;;;22.52;33.15
48718;BME280;34521;33.042;-96.586;2023-03-31T00:18:45;99131.85;;;22.50;33.11
48718;BME280;34521;33.042;-96.586;2023-03-31T00:21:12;99126.39;;;22.57;32.88
48718;BME280;34521;33.042;-96.586;2023-03-31T00:23:35;99113.93;;;21.76;33.78
48718;BME280;34521;33.042;-96.586;2023-03-31T00:26:01;99122.64;;;21.69;34.16
48718;BME280;34521;33.042;-96.586;2023-03-31T00:28:25;99123.04;;;21.79;34.57
48718;BME280;34521;33.042;-96.586;2023-03-31T00:30:51;99135.23;;;21.94;34.10
48718;BME280;34521;33.042;-96.586;2023-03-31T00:33:16;99156.17;;;21.84;34.33
48718;BME280;34521;33.042;-96.586;2023-03-31T00:35:41;99162.34;;;22.40;34.51
48718;BME280;34521;33.042;-96.586;2023-03-31T00:38:06;99176.06;;;19.39;38.97
48718;BME280;34521;33.042;-96.586;2023-03-31T00:40:31;99190.53;;;18.84;40.45
48718;BME280;34521;33.042;-96.586;2023-03-31T00:42:56;99203.57;;;18.85;40.93
48718;BME280;34521;33.042;-96.586;2023-03-31T00:45:24;99202.10;;;18.76;41.18
48718;BME280;34521;33.042;-96.586;2023-03-31T00:47:47;99198.72;;;19.59;40.41
48718;BME280;34521;33.042;-96.586;2023-03-31T00:50:15;99174.72;;;21.74;35.81
48718;BME280;34521;33.042;-96.586;2023-03-31T00:52:36;99162.29;;;21.84;34.91
48718;BME280;34521;33.042;-96.586;2023-03-31T00:55:07;99159.18;;;22.11;34.52
48718;BME280;34521;33.042;-96.586;2023-03-31T00:57:27;99162.42;;;22.11;34.04
48718;BME280;34521;33.042;-96.586;2023-03-31T00:59:54;99169.74;;;22.58;33.66
48718;BME280;34521;33.042;-96.586;2023-03-31T01:02:17;99166.88;;;22.39;33.78
48718;BME280;34521;33.042;-96.586;2023-03-31T01:04:45;99166.25;;;22.58;33.66
48718;BME280;34521;33.042;-96.586;2023-03-31T01:07:13;99160.91;;;22.50;33.49
48718;BME280;34521;33.042;-96.586;2023-03-31T01:09:31;99157.45;;;22.30;33.28
48718;BME280;34521;33.042;-96.586;2023-03-31T01:11:57;99162.96;;;22.60;33.30
48718;BME280;34521;33.042;-96.586;2023-03-31T01:14:22;99158.50;;;22.42;32.96
48718;BME280;34521;33.042;-96.586;2023-03-31T01:16:47;99144.32;;;22.69;32.66
48718;BME280;34521;33.042;-96.586;2023-03-31T01:19:17;99135.52;;;22.35;33.10
48718;BME280;34521;33.042;-96.586;2023-03-31T01:26:45;99082.41;;;22.36;33.38
48718;BME280;34521;33.042;-96.586;2023-03-31T01:28:55;99058.31;;;22.53;33.03
48718;BME280;34521;33.042;-96.586;2023-03-31T01:38:42;99041.08;;;18.98;40.54
48718;BME280;34521;33.042;-96.586;2023-03-31T01:41:06;99048.27;;;18.45;41.55
48718;BME280;34521;33.042;-96.586;2023-03-31T01:43:25;99045.52;;;18.79;42.01
48718;BME280;34521;33.042;-96.586;2023-03-31T01:45:55;99046.27;;;18.49;42.20
48718;BME280;34521;33.042;-96.586;2023-03-31T01:48:15;99048.50;;;20.97;37.34
48718;BME280;34521;33.042;-96.586;2023-03-31T01:50:44;99042.25;;;21.51;35.77
48718;BME280;34521;33.042;-96.586;2023-03-31T01:53:07;99038.91;;;21.74;35.46
48718;BME280;34521;33.042;-96.586;2023-03-31T01:55:33;99038.23;;;21.40;35.99
48718;BME280;34521;33.042;-96.586;2023-03-31T01:57:55;99021.33;;;21.47;35.90
48718;BME280;34521;33.042;-96.586;2023-03-31T02:00:20;99010.94;;;21.94;35.34
48718;BME280;34521;33.042;-96.586;2023-03-31T02:02:46;98975.30;;;22.33;34.86
48718;BME280;34521;33.042;-96.586;2023-03-31T02:05:11;98950.94;;;22.09;35.09
48718;BME280;34521;33.042;-96.586;2023-03-31T02:07:36;98956.93;;;22.23;35.00
48718;BME280;34521;33.042;-96.586;2023-03-31T02:10:01;98962.64;;;22.01;35.15
48718;BME280;34521;33.042;-96.586;2023-03-31T02:12:26;98957.11;;;22.00;34.94
48718;BME280;34521;33.042;-96.586;2023-03-31T02:14:51;98969.55;;;22.81;34.26
48718;BME280;34521;33.042;-96.586;2023-03-31T02:17:16;98961.41;;;22.35;34.46
48718;BME280;34521;33.042;-96.586;2023-03-31T02:19:40;98960.50;;;22.64;34.50
48718;BME280;34521;33.042;-96.586;2023-03-31T02:22:05;98967.23;;;22.42;34.78
48718;BME280;34521;33.042;-96.586;2023-03-31T02:24:29;98988.32;;;22.69;34.47
48718;BME280;34521;33.042;-96.586;2023-03-31T02:26:56;99014.62;;;21.68;35.15
48718;BME280;34521;33.042;-96.586;2023-03-31T02:29:18;99034.50;;;22.85;34.35
48718;BME280;34521;33.042;-96.586;2023-03-31T02:31:47;99035.67;;;21.77;35.02
48718;BME280;34521;33.042;-96.586;2023-03-31T02:34:08;99049.35;;;22.25;35.14
48718;BME280;34521;33.042;-96.586;2023-03-31T02:36:34;99050.00;;;22.46;34.70
48718;BME280;34521;33.042;-96.586;2023-03-31T02:39:03;99066.92;;;22.34;35.07
48718;BME280;34521;33.042;-96.586;2023-03-31T02:41:23;99064.45;;;22.36;34.99
48718;BME280;34521;33.042;-96.586;2023-03-31T02:43:49;99069.48;;;22.27;35.20
48718;BME280;34521;33.042;-96.586;2023-03-31T02:46:14;99069.48;;;22.47;35.15
48718;BME280;34521;33.042;-96.586;2023-03-31T02:48:42;99075.74;;;22.87;34.56
48718;BME280;34521;33.042;-96.586;2023-03-31T02:51:23;99074.20;;;22.37;35.47
48718;BME280;34521;33.042;-96.586;2023-03-31T02:53:37;99080.55;;;22.50;34.68
48718;BME280;34521;33.042;-96.586;2023-03-31T02:56:06;99075.96;;;22.79;34.35
48718;BME280;34521;33.042;-96.586;2023-03-31T03:00:54;99093.66;;;22.58;34.59
48718;BME280;34521;33.042;-96.586;2023-03-31T03:03:19;99092.89;;;23.12;34.25
48718;BME280;34521;33.042;-96.586;2023-03-31T03:05:40;99098.61;;;22.72;34.78
48718;BME280;34521;33.042;-96.586;2023-03-31T03:08:07;99110.43;;;22.54;34.69
48718;BME280;34521;33.042;-96.586;2023-03-31T03:10:29;99120.99;;;23.05;34.28
48718;BME280;34521;33.042;-96.586;2023-03-31T03:12:53;99137.66;;;23.50;33.75
48718;BME280;34521;33.042;-96.586;2023-03-31T03:15:18;99136.31;;;23.54;33.77
48718;BME280;34521;33.042;-96.586;2023-03-31T03:17:41;99133.95;;;23.13;34.00
48718;BME280;34521;33.042;-96.586;2023-03-31T03:20:07;99136.71;;;22.85;34.36
48718;BME280;34521;33.042;-96.586;2023-03-31T03:22:30;99134.31;;;23.10;34.04
48718;BME280;34521;33.042;-96.586;2023-03-31T03:24:55;99132.60;;;22.83;34.46
48718;BME280;34521;33.042;-96.586;2023-03-31T03:27:20;99130.21;;;22.72;34.53
48718;BME280;34521;33.042;-96.586;2023-03-31T03:29:45;99126.40;;;22.60;34.68
48718;BME280;34521;33.042;-96.586;2023-03-31T03:32:11;99134.69;;;23.18;34.07
48718;BME280;34521;33.042;-96.586;2023-03-31T03:34:35;99133.72;;;22.42;35.13
48718;BME280;34521;33.042;-96.586;2023-03-31T03:37:00;99146.84;;;23.14;34.40
48718;BME280;34521;33.042;-96.586;2023-03-31T03:39:26;99156.13;;;21.07;37.61
48718;BME280;34521;33.042;-96.586;2023-03-31T03:41:50;99158.73;;;21.66;37.14
48718;BME280;34521;33.042;-96.586;2023-03-31T03:44:16;99172.40;;;21.57;37.28
48718;BME280;34521;33.042;-96.586;2023-03-31T03:46:41;99174.73;;;22.99;34.11
48718;BME280;34521;33.042;-96.586;2023-03-31T03:49:06;99175.61;;;23.24;33.42
48718;BME280;34521;33.042;-96.586;2023-03-31T03:51:30;99176.65;;;23.30;33.36
48718;BME280;34521;33.042;-96.586;2023-03-31T03:53:56;99180.23;;;23.59;33.36
48718;BME280;34521;33.042;-96.586;2023-03-31T03:56:21;99176.59;;;23.53;33.27
48718;BME280;34521;33.042;-96.586;2023-03-31T03:58:45;99175.83;;;23.20;32.97
48718;BME280;34521;33.042;-96.586;2023-03-31T04:01:11;99176.64;;;23.69;32.91
48718;BME280;34521;33.042;-96.586;2023-03-31T04:03:36;99182.26;;;23.47;32.84
48718;BME280;34521;33.042;-96.586;2023-03-31T04:06:01;99172.96;;;23.38;32.93
48718;BME280;34521;33.042;-96.586;2023-03-31T04:08:26;99170.70;;;23.40;32.57
48718;BME280;34521;33.042;-96.586;2023-03-31T04:10:51;99149.94;;;23.36;32.53
48718;BME280;34521;33.042;-96.586;2023-03-31T04:13:16;99141.20;;;23.31;32.82
48718;BME280;34521;33.042;-96.586;2023-03-31T04:15:41;99136.86;;;23.17;33.11
48718;BME280;34521;33.042;-96.586;2023-03-31T04:18:06;99145.20;;;23.26;32.98
48718;BME280;34521;33.042;-96.586;2023-03-31T04:20:31;99152.55;;;23.27;32.91
48718;BME280;34521;33.042;-96.586;2023-03-31T04:22:56;99149.15;;;23.20;32.97
48718;BME280;34521;33.042;-96.586;2023-03-31T04:25:21;99148.71;;;23.01;32.78
48718;BME280;34521;33.042;-96.586;2023-03-31T04:27:47;99146.65;;;23.54;32.43
48718;BME280;34521;33.042;-96.586;2023-03-31T04:30:13;99141.29;;;23.41;32.25
48718;BME280;34521;33.042;-96.586;2023-03-31T04:32:36;99151.90;;;22.05;35.31
48718;BME280;34521;33.042;-96.586;2023-03-31T04:35:01;99160.82;;;20.79;38.09
48718;BME280;34521;33.042;-96.586;2023-03-31T04:37:26;99167.53;;;19.96;39.84
48718;BME280;34521;33.042;-96.586;2023-03-31T04:39:51;99168.36;;;19.79;39.92
48718;BME280;34521;33.042;-96.586;2023-03-31T04:42:17;99167.70;;;19.38;40.68
48718;BME280;34521;33.042;-96.586;2023-03-31T04:44:42;99163.99;;;21.44;37.25
48718;BME280;34521;33.042;-96.586;2023-03-31T04:47:06;99159.41;;;22.88;34.73
48718;BME280;34521;33.042;-96.586;2023-03-31T04:49:31;99163.33;;;22.90;34.12
48718;BME280;34521;33.042;-96.586;2023-03-31T04:51:57;99156.32;;;23.16;33.85
48718;BME280;34521;33.042;-96.586;2023-03-31T04:54:22;99147.16;;;23.33;33.53
48718;BME280;34521;33.042;-96.586;2023-03-31T04:56:47;99150.34;;;23.25;33.22
48718;BME280;34521;33.042;-96.586;2023-03-31T04:59:12;99145.27;;;23.01;33.57
48718;BME280;34521;33.042;-96.586;2023-03-31T05:01:37;99142.83;;;23.15;33.27
48718;BME280;34521;33.042;-96.586;2023-03-31T05:04:02;99145.46;;;23.02;33.15
48718;BME280;34521;33.042;-96.586;2023-03-31T05:06:27;99151.83;;;23.54;33.01
48718;BME280;34521;33.042;-96.586;2023-03-31T05:08:53;99163.63;;;23.34;33.01
48718;BME280;34521;33.042;-96.586;2023-03-31T05:11:17;99163.29;;;23.44;33.13
48718;BME280;34521;33.042;-96.586;2023-03-31T05:13:42;99164.38;;;23.03;32.98
48718;BME280;34521;33.042;-96.586;2023-03-31T05:16:09;99150.80;;;22.81;33.25
48718;BME280;34521;33.042;-96.586;2023-03-31T05:18:32;99158.58;;;23.38;33.14
48718;BME280;34521;33.042;-96.586;2023-03-31T05:21:04;99152.68;;;23.06;33.17
48718;BME280;34521;33.042;-96.586;2023-03-31T05:23:22;99149.81;;;23.48;32.92
48718;BME280;34521;33.042;-96.586;2023-03-31T05:25:47;99148.74;;;23.57;32.82
48718;BME280;34521;33.042;-96.586;2023-03-31T05:28:12;99139.84;;;23.06;33.41
48718;BME280;34521;33.042;-96.586;2023-03-31T05:30:37;99141.87;;;22.63;33.33
48718;BME280;34521;33.042;-96.586;2023-03-31T05:33:02;99141.04;;;20.62;38.01
48718;BME280;34521;33.042;-96.586;2023-03-31T05:35:27;99140.37;;;19.48;40.28
48718;BME280;34521;33.042;-96.586;2023-03-31T05:37:53;99142.50;;;19.42;40.70
48718;BME280;34521;33.042;-96.586;2023-03-31T05:40:18;99144.27;;;19.50;41.44
48718;BME280;34521;33.042;-96.586;2023-03-31T05:42:43;99139.45;;;19.79;41.16
48718;BME280;34521;33.042;-96.586;2023-03-31T05:45:09;99124.96;;;22.07;36.28
48718;BME280;34521;33.042;-96.586;2023-03-31T05:47:33;99119.43;;;22.82;34.65
48718;BME280;34521;33.042;-96.586;2023-03-31T05:49:58;99117.44;;;23.06;34.04
48718;BME280;34521;33.042;-96.586;2023-03-31T05:52:22;99114.71;;;23.01;34.04
48718;BME280;34521;33.042;-96.586;2023-03-31T05:54:48;99118.66;;;23.03;34.03
48718;BME280;34521;33.042;-96.586;2023-03-31T05:57:13;99102.89;;;22.97;34.12
48718;BME280;34521;33.042;-96.586;2023-03-31T05:59:38;99106.21;;;22.75;33.99
48718;BME280;34521;33.042;-96.586;2023-03-31T06:02:03;99114.16;;;22.98;33.96
48718;BME280;34521;33.042;-96.586;2023-03-31T06:04:28;99121.98;;;22.52;33.98
48718;BME280;34521;33.042;-96.586;2023-03-31T06:06:53;99124.26;;;23.20;33.38
48718;BME280;34521;33.042;-96.586;2023-03-31T06:09:19;99124.55;;;23.05;33.46
48718;BME280;34521;33.042;-96.586;2023-03-31T06:11:44;99116.39;;;23.24;33.51
48718;BME280;34521;33.042;-96.586;2023-03-31T06:14:09;99114.01;;;23.06;33.75
48718;BME280;34521;33.042;-96.586;2023-03-31T06:16:34;99100.86;;;23.02;33.44
48718;BME280;34521;33.042;-96.586;2023-03-31T06:18:59;99088.07;;;22.91;33.55
48718;BME280;34521;33.042;-96.586;2023-03-31T06:21:24;99085.81;;;23.15;33.60
48718;BME280;34521;33.042;-96.586;2023-03-31T06:23:49;99090.50;;;22.33;33.95
48718;BME280;34521;33.042;-96.586;2023-03-31T06:26:16;99097.70;;;22.62;33.86
48718;BME280;34521;33.042;-96.586;2023-03-31T06:28:39;99090.92;;;22.83;33.67
48718;BME280;34521;33.042;-96.586;2023-03-31T06:31:06;99082.94;;;21.17;37.36
48718;BME280;34521;33.042;-96.586;2023-03-31T06:33:29;99081.48;;;19.68;40.22
48718;BME280;34521;33.042;-96.586;2023-03-31T06:35:56;99076.94;;;19.21;41.55
48718;BME280;34521;33.042;-96.586;2023-03-31T06:38:19;99074.32;;;19.32;41.96
48718;BME280;34521;33.042;-96.586;2023-03-31T06:40:44;99064.10;;;19.31;42.51
48718;BME280;34521;33.042;-96.586;2023-03-31T06:43:10;99068.75;;;21.45;37.69
48718;BME280;34521;33.042;-96.586;2023-03-31T06:45:36;99068.07;;;22.71;35.28
48718;BME280;34521;33.042;-96.586;2023-03-31T06:47:59;99060.35;;;22.84;34.79
48718;BME280;34521;33.042;-96.586;2023-03-31T06:50:25;99068.30;;;22.98;34.33
48718;BME280;34521;33.042;-96.586;2023-03-31T06:52:50;99069.45;;;22.91;34.30
48718;BME280;34521;33.042;-96.586;2023-03-31T06:55:15;99064.39;;;22.97;34.28
48718;BME280;34521;33.042;-96.586;2023-03-31T06:57:39;99053.09;;;22.91;34.29
48718;BME280;34521;33.042;-96.586;2023-03-31T07:00:06;99053.01;;;22.38;34.40
48718;BME280;34521;33.042;-96.586;2023-03-31T07:02:30;99053.37;;;22.87;34.55
48718;BME280;34521;33.042;-96.586;2023-03-31T07:04:55;99048.99;;;22.90;34.34
48718;BME280;34521;33.042;-96.586;2023-03-31T07:07:20;99050.41;;;23.06;34.06
48718;BME280;34521;33.042;-96.586;2023-03-31T07:09:45;99051.93;;;23.09;33.99
48718;BME280;34521;33.042;-96.586;2023-03-31T07:12:10;99040.19;;;22.88;34.24
48718;BME280;34521;33.042;-96.586;2023-03-31T07:14:35;99041.42;;;22.59;34.33
48718;BME280;34521;33.042;-96.586;2023-03-31T07:17:00;99042.91;;;22.81;34.27
48718;BME280;34521;33.042;-96.586;2023-03-31T07:19:25;99042.39;;;22.90;34.15
48718;BME280;34521;33.042;-96.586;2023-03-31T07:21:50;99046.93;;;22.97;33.96
48718;BME280;34521;33.042;-96.586;2023-03-31T07:24:15;99052.58;;;22.63;34.49
48718;BME280;34521;33.042;-96.586;2023-03-31T07:26:40;99040.24;;;22.82;34.07
48718;BME280;34521;33.042;-96.586;2023-03-31T07:29:05;99043.51;;;21.46;36.63
48718;BME280;34521;33.042;-96.586;2023-03-31T07:31:31;99051.56;;;19.84;40.01
48718;BME280;34521;33.042;-96.586;2023-03-31T07:33:55;99047.95;;;19.46;41.77
48718;BME280;34521;33.042;-96.586;2023-03-31T07:36:20;99047.90;;;18.61;42.52
48718;BME280;34521;33.042;-96.586;2023-03-31T07:38:46;99052.30;;;19.21;42.90
48718;BME280;34521;33.042;-96.586;2023-03-31T07:41:11;99060.79;;;20.31;40.48
48718;BME280;34521;33.042;-96.586;2023-03-31T07:43:35;99056.06;;;22.30;36.53
48718;BME280;34521;33.042;-96.586;2023-03-31T07:46:01;99055.15;;;22.99;35.32
48718;BME280;34521;33.042;-96.586;2023-03-31T07:48:26;99053.04;;;22.41;35.39
48718;BME280;34521;33.042;-96.586;2023-03-31T07:50:50;99046.73;;;22.69;35.06
48718;BME280;34521;33.042;-96.586;2023-03-31T07:53:16;99051.64;;;22.90;34.59
48718;BME280;34521;33.042;-96.586;2023-03-31T07:55:41;99055.23;;;22.56;34.50
48718;BME280;34521;33.042;-96.586;2023-03-31T07:58:06;99047.42;;;22.84;34.66
48718;BME280;34521;33.042;-96.586;2023-03-31T08:00:30;99036.32;;;22.75;34.70
48718;BME280;34521;33.042;-96.586;2023-03-31T08:02:56;99042.93;;;22.91;34.39
48718;BME280;34521;33.042;-96.586;2023-03-31T08:05:21;99032.98;;;22.66;34.78
48718;BME280;34521;33.042;-96.586;2023-03-31T08:07:47;99030.39;;;22.48;34.85
48718;BME280;34521;33.042;-96.586;2023-03-31T08:10:13;99029.45;;;22.57;34.79
48718;BME280;34521;33.042;-96.586;2023-03-31T08:12:36;99027.65;;;22.91;34.31
48718;BME280;34521;33.042;-96.586;2023-03-31T08:15:02;99026.92;;;22.81;34.33
48718;BME280;34521;33.042;-96.586;2023-03-31T08:17:26;99015.42;;;22.41;34.56
48718;BME280;34521;33.042;-96.586;2023-03-31T08:19:51;98999.90;;;22.57;34.38
48718;BME280;34521;33.042;-96.586;2023-03-31T08:22:16;98992.20;;;22.65;34.27
48718;BME280;34521;33.042;-96.586;2023-03-31T08:24:41;98998.03;;;22.88;34.22
48718;BME280;34521;33.042;-96.586;2023-03-31T08:27:06;98987.94;;;22.94;34.12
48718;BME280;34521;33.042;-96.586;2023-03-31T08:29:31;98980.22;;;20.61;38.89
48718;BME280;34521;33.042;-96.586;2023-03-31T08:31:56;98981.47;;;19.41;41.39
48718;BME280;34521;33.042;-96.586;2023-03-31T08:34:21;98992.89;;;19.31;42.51
48718;BME280;34521;33.042;-96.586;2023-03-31T08:36:46;98993.72;;;19.28;43.20
48718;BME280;34521;33.042;-96.586;2023-03-31T08:39:12;98979.16;;;19.06;43.73
48718;BME280;34521;33.042;-96.586;2023-03-31T08:41:46;98970.17;;;21.93;38.11
48718;BME280;34521;33.042;-96.586;2023-03-31T08:44:06;98971.28;;;22.33;36.17
48718;BME280;34521;33.042;-96.586;2023-03-31T08:46:28;98953.97;;;22.62;35.68
48718;BME280;34521;33.042;-96.586;2023-03-31T08:48:54;98944.30;;;22.84;34.96
48718;BME280;34521;33.042;-96.586;2023-03-31T08:51:19;98935.07;;;22.53;35.49
48718;BME280;34521;33.042;-96.586;2023-03-31T08:53:45;98931.16;;;22.75;35.08
48718;BME280;34521;33.042;-96.586;2023-03-31T08:56:13;98921.79;;;22.79;34.92
48718;BME280;34521;33.042;-96.586;2023-03-31T08:58:38;98910.93;;;22.39;34.88
48718;BME280;34521;33.042;-96.586;2023-03-31T09:01:02;98908.57;;;22.75;34.96
48718;BME280;34521;33.042;-96.586;2023-03-31T09:03:29;98884.26;;;22.83;34.80
48718;BME280;34521;33.042;-96.586;2023-03-31T09:05:53;98876.47;;;22.79;34.86
48718;BME280;34521;33.042;-96.586;2023-03-31T09:08:20;98872.67;;;22.96;34.58
48718;BME280;34521;33.042;-96.586;2023-03-31T09:10:44;98868.48;;;22.41;34.98
48718;BME280;34521;33.042;-96.586;2023-03-31T09:13:10;98879.98;;;22.29;35.17
48718;BME280;34521;33.042;-96.586;2023-03-31T09:15:31;98868.30;;;22.86;34.62
48718;BME280;34521;33.042;-96.586;2023-03-31T09:17:54;98883.12;;;22.65;34.58
48718;BME280;34521;33.042;-96.586;2023-03-31T09:20:20;98900.42;;;22.85;34.66
48718;BME280;34521;33.042;-96.586;2023-03-31T09:22:46;98909.51;;;22.91;34.38
48718;BME280;34521;33.042;-96.586;2023-03-31T09:25:12;98904.63;;;22.81;34.37
48718;BME280;34521;33.042;-96.586;2023-03-31T09:27:33;98895.36;;;20.78;38.54
48718;BME280;34521;33.042;-96.586;2023-03-31T09:30:02;98902.46;;;19.48;41.64
48718;BME280;34521;33.042;-96.586;2023-03-31T09:32:26;98909.19;;;19.38;42.57
48718;BME280;34521;33.042;-96.586;2023-03-31T09:34:51;98910.68;;;19.30;43.30
48718;BME280;34521;33.042;-96.586;2023-03-31T09:37:13;98924.26;;;18.97;43.93
48718;BME280;34521;33.042;-96.586;2023-03-31T09:39:38;98899.61;;;21.00;39.95
48718;BME280;34521;33.042;-96.586;2023-03-31T09:42:03;98899.31;;;22.47;36.73
48718;BME280;34521;33.042;-96.586;2023-03-31T09:44:30;98896.89;;;22.49;36.30
48718;BME280;34521;33.042;-96.586;2023-03-31T09:46:54;98882.32;;;22.38;35.98
48718;BME280;34521;33.042;-96.586;2023-03-31T09:49:20;98864.67;;;22.53;35.76
48718;BME280;34521;33.042;-96.586;2023-03-31T09:51:45;98850.05;;;22.59;35.70
48718;BME280;34521;33.042;-96.586;2023-03-31T09:54:12;98853.84;;;22.66;35.70
48718;BME280;34521;33.042;-96.586;2023-03-31T09:59:02;98869.46;;;22.51;35.29
48718;BME280;34521;33.042;-96.586;2023-03-31T10:01:23;98852.62;;;22.80;34.88
48718;BME280;34521;33.042;-96.586;2023-03-31T10:03:50;98851.38;;;22.48;35.47
48718;BME280;34521;33.042;-96.586;2023-03-31T10:06:14;98840.28;;;22.69;35.02
48718;BME280;34521;33.042;-96.586;2023-03-31T10:08:40;98831.56;;;22.79;34.86
48718;BME280;34521;33.042;-96.586;2023-03-31T10:11:09;98837.64;;;22.76;34.90
48718;BME280;34521;33.042;-96.586;2023-03-31T10:13:33;98829.16;;;23.13;34.68
48718;BME280;34521;33.042;-96.586;2023-03-31T10:15:59;98825.01;;;22.70;35.16
48718;BME280;34521;33.042;-96.586;2023-03-31T10:18:20;98826.75;;;22.97;34.80
48718;BME280;34521;33.042;-96.586;2023-03-31T10:20:47;98824.71;;;22.78;35.13
48718;BME280;34521;33.042;-96.586;2023-03-31T10:23:14;98802.86;;;22.72;35.18
48718;BME280;34521;33.042;-96.586;2023-03-31T10:25:33;98783.07;;;23.22;34.70
48718;BME280;34521;33.042;-96.586;2023-03-31T10:28:01;98783.77;;;20.10;40.03
48718;BME280;34521;33.042;-96.586;2023-03-31T10:30:27;98770.06;;;19.47;42.50
48718;BME280;34521;33.042;-96.586;2023-03-31T10:32:49;98764.22;;;19.18;43.51
48718;BME280;34521;33.042;-96.586;2023-03-31T10:35:21;98788.21;;;18.84;44.29
48718;BME280;34521;33.042;-96.586;2023-03-31T10:37:38;98822.20;;;19.13;44.39
48718;BME280;34521;33.042;-96.586;2023-03-31T10:40:13;98812.56;;;21.87;38.01
48718;BME280;34521;33.042;-96.586;2023-03-31T10:42:29;98829.38;;;22.49;37.03
48718;BME280;34521;33.042;-96.586;2023-03-31T10:45:09;98843.98;;;22.36;36.37
48718;BME280;34521;33.042;-96.586;2023-03-31T10:47:20;98849.81;;;22.73;36.06
48718;BME280;34521;33.042;-96.586;2023-03-31T10:49:46;98843.97;;;23.20;35.69
48718;BME280;34521;33.042;-96.586;2023-03-31T10:52:15;98821.71;;;22.97;35.59
48718;BME280;34521;33.042;-96.586;2023-03-31T10:54:35;98824.18;;;22.75;35.56
48718;BME280;34521;33.042;-96.586;2023-03-31T10:57:00;98833.46;;;22.60;35.68
48718;BME280;34521;33.042;-96.586;2023-03-31T10:59:33;98812.36;;;23.05;35.31
48718;BME280;34521;33.042;-96.586;2023-03-31T11:02:00;98825.73;;;23.15;35.12
48718;BME280;34521;33.042;-96.586;2023-03-31T11:04:24;98828.04;;;23.05;35.40
48718;BME280;34521;33.042;-96.586;2023-03-31T11:06:48;98832.14;;;23.14;35.20
48718;BME280;34521;33.042;-96.586;2023-03-31T11:09:15;98827.95;;;22.58;35.67
48718;BME280;34521;33.042;-96.586;2023-03-31T11:11:42;98833.26;;;22.77;35.33
48718;BME280;34521;33.042;-96.586;2023-03-31T11:13:59;98830.63;;;22.73;35.63
48718;BME280;34521;33.042;-96.586;2023-03-31T11:16:24;98849.56;;;22.90;35.65
48718;BME280;34521;33.042;-96.586;2023-03-31T11:18:56;98858.17;;;22.78;35.63
48718;BME280;34521;33.042;-96.586;2023-03-31T11:21:17;98869.99;;;22.58;35.53
48718;BME280;34521;33.042;-96.586;2023-03-31T11:23:41;98867.63;;;22.13;35.82
48718;BME280;34521;33.042;-96.586;2023-03-31T11:26:03;98899.11;;;21.05;39.07
48718;BME280;34521;33.042;-96.586;2023-03-31T11:28:34;98908.46;;;19.51;42.44
48718;BME280;34521;33.042;-96.586;2023-03-31T11:30:54;98907.69;;;19.22;43.93
48718;BME280;34521;33.042;-96.586;2023-03-31T11:33:29;98913.14;;;18.72;44.56
48718;BME280;34521;33.042;-96.586;2023-03-31T11:35:48;98920.79;;;19.23;44.65
48718;BME280;34521;33.042;-96.586;2023-03-31T11:38:17;98926.62;;;21.45;39.66
48718;BME280;34521;33.042;-96.586;2023-03-31T11:40:41;98912.45;;;22.56;37.32
48718;BME280;34521;33.042;-96.586;2023-03-31T11:42:58;98920.07;;;22.42;36.72
48718;BME280;34521;33.042;-96.586;2023-03-31T11:45:22;98922.11;;;22.82;36.24
48718;BME280;34521;33.042;-96.586;2023-03-31T11:47:47;98937.97;;;22.68;36.42
48718;BME280;34521;33.042;-96.586;2023-03-31T11:50:12;98922.53;;;22.69;36.55
48718;BME280;34521;33.042;-96.586;2023-03-31T11:52:39;98939.23;;;22.71;36.30
48718;BME280;34521;33.042;-96.586;2023-03-31T11:55:04;98949.16;;;22.78;36.09
48718;BME280;34521;33.042;-96.586;2023-03-31T11:57:35;98955.16;;;22.66;36.27
48718;BME280;34521;33.042;-96.586;2023-03-31T11:59:56;98951.52;;;22.60;36.19
48718;BME280;34521;33.042;-96.586;2023-03-31T12:02:18;98961.51;;;23.07;35.40
48718;BME280;34521;33.042;-96.586;2023-03-31T12:04:44;98962.96;;;22.46;35.92
48718;BME280;34521;33.042;-96.586;2023-03-31T12:07:18;98966.48;;;22.38;35.69
48718;BME280;34521;33.042;-96.586;2023-03-31T12:09:36;98960.29;;;23.10;35.38
48718;BME280;34521;33.042;-96.586;2023-03-31T12:12:02;98954.78;;;22.76;35.76
48718;BME280;34521;33.042;-96.586;2023-03-31T12:14:29;98951.24;;;22.81;35.59
48718;BME280;34521;33.042;-96.586;2023-03-31T12:16:49;98945.97;;;23.24;35.72
48718;BME280;34521;33.042;-96.586;2023-03-31T12:19:16;98941.34;;;22.88;36.00
48718;BME280;34521;33.042;-96.586;2023-03-31T12:21:39;98939.69;;;22.41;36.00
48718;BME280;34521;33.042;-96.586;2023-03-31T12:24:01;98945.45;;;22.16;38.03
48718;BME280;34521;33.042;-96.586;2023-03-31T12:26:36;98953.45;;;20.01;42.17
48718;BME280;34521;33.042;-96.586;2023-03-31T12:28:54;98953.66;;;19.60;44.08
48718;BME280;34521;33.042;-96.586;2023-03-31T12:31:20;98956.05;;;19.26;44.84
48718;BME280;34521;33.042;-96.586;2023-03-31T12:33:44;98956.21;;;19.28;45.41
48718;BME280;34521;33.042;-96.586;2023-03-31T12:36:17;98954.73;;;20.27;43.60
48718;BME280;34521;33.042;-96.586;2023-03-31T12:38:49;98944.65;;;22.26;38.39
48718;BME280;34521;33.042;-96.586;2023-03-31T12:41:03;98950.57;;;22.62;37.53
48718;BME280;34521;33.042;-96.586;2023-03-31T12:43:34;98959.69;;;22.70;37.05
48718;BME280;34521;33.042;-96.586;2023-03-31T12:45:52;98968.08;;;22.75;37.11